createdAt,value
2023-04-26T00:00:49.852Z,99510.19
2023-04-26T00:03:16.655Z,99513.50
2023-04-26T00:05:43.536Z,99516.78
2023-04-26T00:08:10.411Z,99509.56
2023-04-26T00:10:37.176Z,99517.78
2023-04-26T00:13:03.973Z,99528.00
2023-04-26T00:15:30.629Z,99524.03
2023-04-26T00:17:57.409Z,99519.41
2023-04-26T00:20:24.174Z,99520.25
2023-04-26T00:22:50.802Z,99522.03
2023-04-26T00:25:17.542Z,99511.88
2023-04-26T00:27:44.190Z,99513.50
2023-04-26T00:30:11.311Z,99515.78
2023-04-26T00:32:38.003Z,99520.91
2023-04-26T00:35:06.642Z,99527.00
2023-04-26T00:37:33.263Z,99520.09
2023-04-26T00:39:59.934Z,99526.00
2023-04-26T00:42:27.477Z,99526.66
2023-04-26T00:44:57.549Z,99518.75
2023-04-26T00:47:26.030Z,99508.53
2023-04-26T00:49:54.333Z,99520.91
2023-04-26T00:52:21.982Z,99507.88
2023-04-26T00:54:52.083Z,99517.09
2023-04-26T00:57:18.720Z,99514.16
2023-04-26T00:59:45.444Z,99514.81
2023-04-26T01:02:12.241Z,99522.06
2023-04-26T01:04:40.261Z,99518.25
2023-04-26T01:07:06.966Z,99517.41
2023-04-26T01:09:33.818Z,99529.13
2023-04-26T01:12:01.289Z,99533.56
2023-04-26T01:14:28.776Z,99535.34
2023-04-26T01:16:57.559Z,99531.41
2023-04-26T01:19:25.795Z,99535.03
2023-04-26T01:21:52.495Z,99540.31
2023-04-26T01:24:19.165Z,99535.19
2023-04-26T01:26:46.684Z,99538.47
2023-04-26T01:29:20.739Z,99543.09
2023-04-26T01:31:48.291Z,99543.28
2023-04-26T01:34:15.308Z,99547.38
2023-04-26T01:36:42.548Z,99551.16
2023-04-26T01:39:09.678Z,99553.44
2023-04-26T01:41:36.748Z,99554.97
2023-04-26T01:44:03.589Z,99559.56
2023-04-26T01:46:30.243Z,99560.56
2023-04-26T01:48:57.404Z,99554.16
2023-04-26T01:51:24.080Z,99550.53
2023-04-26T01:53:50.934Z,99561.38
2023-04-26T01:56:18.368Z,99562.72
2023-04-26T01:58:45.144Z,99564.34
2023-04-26T02:01:12.196Z,99561.56
2023-04-26T02:03:39.008Z,99565.38
2023-04-26T02:06:06.094Z,99564.22
2023-04-26T02:08:32.900Z,99560.75
2023-04-26T02:10:59.612Z,99562.75
2023-04-26T02:13:28.104Z,99564.69
2023-04-26T02:15:54.946Z,99571.31
2023-04-26T02:18:22.196Z,99569.50
2023-04-26T02:20:49.205Z,99564.56
2023-04-26T02:23:15.962Z,99569.63
2023-04-26T02:25:45.864Z,99573.75
2023-04-26T02:28:12.322Z,99567.66
2023-04-26T02:30:39.109Z,99567.19
2023-04-26T02:33:05.985Z,99567.34
2023-04-26T02:35:32.693Z,99575.09
2023-04-26T02:37:59.348Z,99581.03
2023-04-26T02:40:25.994Z,99580.69
2023-04-26T02:42:52.583Z,99578.72
2023-04-26T02:45:19.384Z,99580.03
2023-04-26T02:47:46.016Z,99587.13
2023-04-26T02:50:12.649Z,99586.94
2023-04-26T02:52:39.330Z,99586.63
2023-04-26T02:55:06.803Z,99594.22
2023-04-26T02:57:36.639Z,99591.41
2023-04-26T03:00:06.405Z,99592.88
2023-04-26T03:02:33.521Z,99596.84
2023-04-26T03:05:00.453Z,99596.84
2023-04-26T03:07:27.107Z,99595.19
2023-04-26T03:09:53.680Z,99601.31
2023-04-26T03:12:20.351Z,99603.09
2023-04-26T03:14:47.070Z,99608.38
2023-04-26T03:17:13.769Z,99611.66
2023-04-26T03:19:40.516Z,99618.28
2023-04-26T03:22:07.439Z,99625.19
2023-04-26T03:24:34.058Z,99631.78
2023-04-26T03:27:00.675Z,99628.81
2023-04-26T03:29:27.369Z,99631.28
2023-04-26T03:31:54.192Z,99636.41
2023-04-26T03:34:20.880Z,99637.22
2023-04-26T03:36:47.686Z,99637.72
2023-04-26T03:39:14.356Z,99640.97
2023-04-26T03:41:41.265Z,99649.22
2023-04-26T03:44:08.054Z,99651.53
2023-04-26T03:46:34.697Z,99645.47
2023-04-26T03:49:04.518Z,99659.78
2023-04-26T03:51:31.463Z,99657.13
2023-04-26T03:53:59.052Z,99662.78
2023-04-26T03:56:25.802Z,99676.28
2023-04-26T03:58:52.580Z,99667.03
2023-04-26T04:01:20.388Z,99670.81
2023-04-26T04:03:47.315Z,99679.56
2023-04-26T04:06:14.196Z,99674.13
2023-04-26T04:08:40.994Z,99688.31
2023-04-26T04:11:07.659Z,99688.13
2023-04-26T04:13:34.309Z,99681.88
2023-04-26T04:16:00.954Z,99698.34
2023-04-26T04:18:27.723Z,99697.53
2023-04-26T04:20:54.471Z,99710.22
2023-04-26T04:23:21.574Z,99698.38
2023-04-26T04:25:49.266Z,99708.59
2023-04-26T04:28:16.098Z,99706.28
2023-04-26T04:30:44.220Z,99713.72
2023-04-26T04:33:10.877Z,99718.81
2023-04-26T04:35:37.685Z,99721.13
2023-04-26T04:38:04.408Z,99729.03
2023-04-26T04:40:31.444Z,99723.94
2023-04-26T04:42:58.211Z,99727.06
2023-04-26T04:45:24.844Z,99744.38
2023-04-26T04:47:54.388Z,99740.25
2023-04-26T04:50:21.840Z,99742.75
2023-04-26T04:52:48.492Z,99748.19
2023-04-26T04:55:15.139Z,99758.09
2023-04-26T04:57:44.638Z,99753.47
2023-04-26T05:00:15.830Z,99755.44
2023-04-26T05:02:43.135Z,99762.69
2023-04-26T05:05:11.242Z,99762.03
2023-04-26T05:07:38.100Z,99764.19
2023-04-26T05:10:05.128Z,99762.88
2023-04-26T05:12:31.889Z,99776.53
2023-04-26T05:14:58.470Z,99781.66
2023-04-26T05:17:25.261Z,99784.13
2023-04-26T05:19:53.032Z,99780.81
2023-04-26T05:22:21.254Z,99780.81
2023-04-26T05:24:48.671Z,99791.19
2023-04-26T05:27:15.536Z,99793.31
2023-04-26T05:29:43.122Z,99784.91
2023-04-26T05:32:09.831Z,99800.25
2023-04-26T05:34:37.472Z,99803.72
2023-04-26T05:37:04.191Z,99801.84
2023-04-26T05:39:31.936Z,99793.22
2023-04-26T05:41:58.623Z,99809.44
2023-04-26T05:44:25.452Z,99804.31
2023-04-26T05:46:52.086Z,99808.25
2023-04-26T05:49:18.784Z,99810.22
2023-04-26T05:51:45.395Z,99808.41
2023-04-26T05:54:12.140Z,99810.34
2023-04-26T05:56:38.799Z,99812.63
2023-04-26T05:59:06.553Z,99821.53
2023-04-26T06:01:33.233Z,99815.88
2023-04-26T06:04:01.189Z,99821.38
2023-04-26T06:06:28.704Z,99826.75
2023-04-26T06:08:55.725Z,99827.09
2023-04-26T06:11:22.549Z,99830.28
2023-04-26T06:13:49.327Z,99834.97
2023-04-26T06:16:16.671Z,99829.69
2023-04-26T06:18:43.851Z,99834.47
2023-04-26T06:21:10.748Z,99829.81
2023-04-26T06:23:37.392Z,99829.84
2023-04-26T06:26:04.155Z,99837.31
2023-04-26T06:28:31.168Z,99840.75
2023-04-26T06:30:57.937Z,99847.06
2023-04-26T06:33:24.619Z,99851.88
2023-04-26T06:35:52.459Z,99852.25
2023-04-26T06:38:19.054Z,99857.16
2023-04-26T06:40:45.669Z,99861.88
2023-04-26T06:43:12.951Z,99848.56
2023-04-26T06:45:40.954Z,99855.06
2023-04-26T06:48:08.524Z,99856.31
2023-04-26T06:50:39.344Z,99852.50
2023-04-26T06:53:06.239Z,99854.81
2023-04-26T06:55:33.758Z,99849.50
2023-04-26T06:58:00.542Z,99863.09
2023-04-26T07:00:28.420Z,99862.75
2023-04-26T07:02:55.206Z,99871.25
2023-04-26T07:05:25.935Z,99873.72
2023-04-26T07:07:52.672Z,99874.00
2023-04-26T07:10:21.082Z,99877.47
2023-04-26T07:12:48.560Z,99872.50
2023-04-26T07:15:15.662Z,99875.19
2023-04-26T07:17:42.236Z,99879.94
2023-04-26T07:20:10.474Z,99883.03
2023-04-26T07:22:37.148Z,99877.75
2023-04-26T07:25:05.064Z,99883.22
2023-04-26T07:27:32.079Z,99887.75
2023-04-26T07:29:58.888Z,99889.13
2023-04-26T07:32:25.629Z,99891.19
2023-04-26T07:34:52.392Z,99892.38
2023-04-26T07:37:19.131Z,99892.44
2023-04-26T07:39:45.722Z,99888.25
2023-04-26T07:42:12.424Z,99900.75
2023-04-26T07:44:41.893Z,99915.44
2023-04-26T07:47:14.621Z,99895.97
2023-04-26T07:49:41.482Z,99894.63
2023-04-26T07:52:11.118Z,99894.19
2023-04-26T07:54:38.360Z,99899.72
2023-04-26T07:57:04.948Z,99897.53
2023-04-26T07:59:31.955Z,99899.78
2023-04-26T08:01:58.563Z,99901.94
2023-04-26T08:04:35.415Z,99905.44
2023-04-26T08:07:02.838Z,99901.00
2023-04-26T08:09:30.928Z,99906.97
2023-04-26T08:11:58.023Z,99900.31
2023-04-26T08:14:25.328Z,99908.16
2023-04-26T08:16:52.100Z,99903.09
2023-04-26T08:19:18.887Z,99921.19
2023-04-26T08:21:45.507Z,99913.28
2023-04-26T08:24:12.118Z,99915.63
2023-04-26T08:26:38.833Z,99888.38
2023-04-26T08:29:06.116Z,99897.28
2023-04-26T08:31:32.765Z,99899.75
2023-04-26T08:33:59.404Z,99893.56
2023-04-26T08:36:26.955Z,99894.16
2023-04-26T08:38:53.598Z,99909.25
2023-04-26T08:41:24.707Z,99901.88
2023-04-26T08:43:52.142Z,99903.47
2023-04-26T08:46:21.040Z,99890.13
2023-04-26T08:49:07.034Z,99903.00
2023-04-26T08:51:34.772Z,99901.53
2023-04-26T08:54:04.137Z,99923.59
2023-04-26T08:56:32.980Z,99900.09
2023-04-26T08:59:01.301Z,99903.34
2023-04-26T09:01:30.009Z,99911.19
2023-04-26T09:03:58.439Z,99915.69
2023-04-26T09:06:27.463Z,99919.09
2023-04-26T09:08:56.085Z,99920.78
2023-04-26T09:11:22.950Z,99912.56
2023-04-26T09:13:49.661Z,99931.16
2023-04-26T09:16:17.093Z,99931.88
2023-04-26T09:18:54.918Z,99928.66
2023-04-26T09:21:21.734Z,99927.16
2023-04-26T09:24:04.880Z,99927.41
2023-04-26T09:26:32.481Z,99936.09
2023-04-26T09:29:19.014Z,99918.34
2023-04-26T09:31:49.808Z,99920.81
2023-04-26T09:34:16.887Z,99952.34
2023-04-26T09:36:51.331Z,99925.59
2023-04-26T09:39:38.684Z,99923.84
2023-04-26T09:42:06.136Z,99924.72
2023-04-26T09:44:33.152Z,99929.34
2023-04-26T09:47:02.593Z,99924.88
2023-04-26T09:49:44.778Z,99923.53
2023-04-26T09:52:11.423Z,99913.94
2023-04-26T09:54:41.497Z,99933.69
2023-04-26T09:57:08.131Z,99949.75
2023-04-26T09:59:47.512Z,99943.03
2023-04-26T10:02:35.293Z,99931.88
2023-04-26T10:05:03.093Z,99926.09
2023-04-26T10:07:30.867Z,99924.09
2023-04-26T10:09:58.423Z,99924.50
2023-04-26T10:12:25.025Z,99938.00
2023-04-26T10:14:53.286Z,99933.13
2023-04-26T10:17:21.122Z,99937.66
2023-04-26T10:19:51.684Z,99921.97
2023-04-26T10:22:23.854Z,99936.53
2023-04-26T10:24:52.701Z,99925.47
2023-04-26T10:27:45.278Z,99925.44
2023-04-26T10:30:14.074Z,99940.69
2023-04-26T10:32:56.122Z,99936.81
2023-04-26T10:35:27.280Z,99934.06
2023-04-26T10:37:59.720Z,99934.94
2023-04-26T10:40:28.375Z,99958.16
2023-04-26T10:43:10.278Z,99949.28
2023-04-26T10:45:37.729Z,99932.03
2023-04-26T10:48:20.247Z,99931.28
2023-04-26T10:51:13.212Z,99943.63
2023-04-26T10:53:46.356Z,99937.03
2023-04-26T10:56:33.698Z,99928.78
2023-04-26T10:59:33.254Z,99930.06
2023-04-26T11:02:00.978Z,99945.06
2023-04-26T11:04:53.399Z,99932.91
2023-04-26T11:07:39.055Z,99924.53
2023-04-26T11:10:22.882Z,99938.38
2023-04-26T11:13:01.028Z,99924.94
2023-04-26T11:15:27.901Z,99941.00
2023-04-26T11:17:54.564Z,99926.84
2023-04-26T11:20:21.258Z,99934.38
2023-04-26T11:22:47.913Z,99922.72
2023-04-26T11:25:14.638Z,99921.31
2023-04-26T11:27:43.498Z,99932.78
2023-04-26T11:30:10.943Z,99931.03
2023-04-26T11:32:37.733Z,99941.84
2023-04-26T11:35:05.054Z,99942.63
2023-04-26T11:37:33.764Z,99946.50
2023-04-26T11:40:00.496Z,99936.53
2023-04-26T11:42:27.242Z,99935.84
2023-04-26T11:44:54.682Z,99937.50
2023-04-26T11:47:22.856Z,99945.50
2023-04-26T11:49:49.689Z,99937.63
2023-04-26T11:52:17.031Z,99923.94
2023-04-26T11:54:44.485Z,99925.38
2023-04-26T11:57:17.321Z,99932.78
2023-04-26T11:59:46.019Z,99922.34
2023-04-26T12:02:12.878Z,99934.00
2023-04-26T12:04:41.407Z,99924.28
2023-04-26T12:07:19.309Z,99931.47
2023-04-26T12:09:46.186Z,99932.50
2023-04-26T12:12:12.793Z,99931.50
2023-04-26T12:14:40.634Z,99928.34
2023-04-26T12:17:08.168Z,99929.28
2023-04-26T12:19:39.728Z,99943.16
2023-04-26T12:22:08.359Z,99935.63
2023-04-26T12:24:37.007Z,99930.69
2023-04-26T12:27:06.936Z,99928.78
2023-04-26T12:29:35.121Z,99924.41
2023-04-26T12:32:02.738Z,99921.59
2023-04-26T12:34:29.825Z,99927.38
2023-04-26T12:36:56.649Z,99930.59
2023-04-26T12:39:23.397Z,99926.41
2023-04-26T12:41:50.041Z,99918.91
2023-04-26T12:44:17.288Z,99927.97
2023-04-26T12:46:45.988Z,99930.19
2023-04-26T12:49:12.786Z,99933.78
2023-04-26T12:51:39.558Z,99925.44
2023-04-26T12:54:06.205Z,99933.28
2023-04-26T12:56:35.142Z,99919.75
2023-04-26T12:59:01.901Z,99924.69
2023-04-26T13:01:28.545Z,99945.44
2023-04-26T13:03:57.242Z,99935.53
2023-04-26T13:06:24.479Z,99917.28
2023-04-26T13:08:51.221Z,99941.09
2023-04-26T13:11:18.125Z,99944.69
2023-04-26T13:13:45.291Z,99943.56
2023-04-26T13:16:13.205Z,99946.56
2023-04-26T13:18:40.701Z,99942.72
2023-04-26T13:21:07.790Z,99925.66
2023-04-26T13:23:34.486Z,99939.81
2023-04-26T13:26:01.175Z,99935.31
2023-04-26T13:28:27.859Z,99947.41
2023-04-26T13:30:55.913Z,99956.88
2023-04-26T13:33:22.832Z,99958.75
2023-04-26T13:35:49.499Z,99952.06
2023-04-26T13:38:16.935Z,99957.16
2023-04-26T13:40:44.366Z,99946.97
2023-04-26T13:43:11.257Z,99948.09
2023-04-26T13:45:39.694Z,99952.13
2023-04-26T13:48:06.634Z,99923.22
2023-04-26T13:50:33.332Z,99951.56
2023-04-26T13:53:00.203Z,99966.56
2023-04-26T13:55:27.192Z,99969.00
2023-04-26T13:57:53.870Z,99965.69
2023-04-26T14:00:20.984Z,99966.91
2023-04-26T14:02:48.212Z,99973.91
2023-04-26T14:05:17.743Z,99972.59
2023-04-26T14:07:44.514Z,99970.00
2023-04-26T14:10:12.559Z,99979.72
2023-04-26T14:12:39.828Z,99972.09
2023-04-26T14:15:08.405Z,99979.72
2023-04-26T14:17:35.090Z,99970.25
2023-04-26T14:20:01.938Z,99980.88
2023-04-26T14:22:28.787Z,99979.22
2023-04-26T14:24:55.467Z,99982.50
2023-04-26T14:27:22.147Z,99983.94
2023-04-26T14:29:48.775Z,99987.44
2023-04-26T14:32:15.703Z,99983.00
2023-04-26T14:34:43.001Z,99981.38
2023-04-26T14:37:10.477Z,99982.06
2023-04-26T14:39:37.523Z,99998.31
2023-04-26T14:42:04.593Z,99989.56
2023-04-26T14:44:32.772Z,100010.22
2023-04-26T14:46:59.437Z,99991.09
2023-04-26T14:49:26.186Z,99996.75
2023-04-26T14:51:53.667Z,100001.06
2023-04-26T14:54:21.123Z,99995.94
2023-04-26T14:56:48.542Z,99999.94
2023-04-26T14:59:15.295Z,100013.09
2023-04-26T15:01:45.031Z,100017.88
2023-04-26T15:04:11.914Z,100031.25
2023-04-26T15:06:39.057Z,100018.84
2023-04-26T15:09:09.153Z,100023.47
2023-04-26T15:11:36.028Z,100029.00
2023-04-26T15:14:02.659Z,100014.66
2023-04-26T15:16:29.316Z,100013.41
2023-04-26T15:18:56.096Z,100009.59
2023-04-26T15:21:22.960Z,100011.94
2023-04-26T15:23:52.730Z,100015.78
2023-04-26T15:26:19.376Z,100020.69
2023-04-26T15:28:46.527Z,100018.09
2023-04-26T15:31:13.318Z,100021.78
2023-04-26T15:33:39.983Z,100023.56
2023-04-26T15:36:07.069Z,100026.09
2023-04-26T15:38:35.264Z,100029.50
2023-04-26T15:41:02.060Z,100023.69
2023-04-26T15:43:28.851Z,100024.56
2023-04-26T15:45:55.709Z,100039.88
2023-04-26T15:48:24.845Z,100036.09
2023-04-26T15:50:53.857Z,100040.13
2023-04-26T15:53:21.851Z,100037.22
2023-04-26T15:55:48.422Z,100039.50
2023-04-26T15:58:15.114Z,100031.69
2023-04-26T16:00:42.093Z,100046.81
2023-04-26T16:03:08.937Z,100033.69
2023-04-26T16:05:35.585Z,100045.81
2023-04-26T16:08:03.353Z,100037.00
2023-04-26T16:10:29.968Z,100049.66
2023-04-26T16:12:57.514Z,100043.78
2023-04-26T16:15:24.151Z,100045.25
2023-04-26T16:17:50.803Z,100047.50
2023-04-26T16:20:17.818Z,100070.31
2023-04-26T16:22:45.351Z,100066.09
2023-04-26T16:25:13.142Z,100058.66
2023-04-26T16:27:39.795Z,100066.34
2023-04-26T16:30:07.005Z,100054.81
2023-04-26T16:32:34.236Z,100061.16
2023-04-26T16:35:01.094Z,100068.22
2023-04-26T16:37:27.883Z,100065.19
2023-04-26T16:39:56.018Z,100070.84
2023-04-26T16:42:22.880Z,100074.63
2023-04-26T16:44:49.561Z,100075.50
2023-04-26T16:47:16.253Z,100075.09
2023-04-26T16:49:42.921Z,100088.63
2023-04-26T16:52:09.726Z,100090.88
2023-04-26T16:54:36.604Z,100088.28
2023-04-26T16:57:04.487Z,100097.56
2023-04-26T16:59:31.362Z,100098.59
2023-04-26T17:01:58.083Z,100102.97
2023-04-26T17:04:26.346Z,100104.69
2023-04-26T17:06:53.823Z,100110.41
2023-04-26T17:09:20.822Z,100101.75
2023-04-26T17:11:47.490Z,100112.06
2023-04-26T17:14:17.275Z,100110.41
2023-04-26T17:16:44.198Z,100111.72
2023-04-26T17:19:11.048Z,100120.75
2023-04-26T17:21:37.825Z,100109.19
2023-04-26T17:24:04.662Z,100116.94
2023-04-26T17:26:32.760Z,100120.22
2023-04-26T17:28:59.496Z,100124.03
2023-04-26T17:31:26.397Z,100125.94
2023-04-26T17:33:53.076Z,100119.00
2023-04-26T17:36:20.024Z,100129.31
2023-04-26T17:38:48.481Z,100130.97
2023-04-26T17:41:18.257Z,100137.06
2023-04-26T17:43:45.887Z,100135.28
2023-04-26T17:46:12.621Z,100138.44
2023-04-26T17:48:39.645Z,100141.06
2023-04-26T17:51:06.906Z,100143.59
2023-04-26T17:53:33.563Z,100152.84
2023-04-26T17:56:00.205Z,100153.03
2023-04-26T17:58:27.596Z,100159.81
2023-04-26T18:00:54.293Z,100161.13
2023-04-26T18:03:21.188Z,100161.81
2023-04-26T18:05:48.323Z,100174.72
2023-04-26T18:08:14.962Z,100173.69
2023-04-26T18:10:41.690Z,100174.19
2023-04-26T18:13:08.446Z,100173.50
2023-04-26T18:15:35.082Z,100179.28
2023-04-26T18:18:05.547Z,100176.31
2023-04-26T18:20:32.504Z,100189.25
2023-04-26T18:22:59.136Z,100181.59
2023-04-26T18:25:25.758Z,100186.69
2023-04-26T18:27:52.384Z,100200.75
2023-04-26T18:30:19.374Z,100196.13
2023-04-26T18:32:46.125Z,100194.75
2023-04-26T18:35:12.909Z,100210.28
2023-04-26T18:37:39.784Z,100201.34
2023-04-26T18:40:07.291Z,100210.06
2023-04-26T18:42:33.928Z,100209.97
2023-04-26T18:45:02.079Z,100212.19
2023-04-26T18:47:28.686Z,100217.13
2023-04-26T18:49:55.826Z,100219.72
2023-04-26T18:52:22.470Z,100219.63
2023-04-26T18:54:49.297Z,100221.13
2023-04-26T18:57:18.160Z,100220.63
2023-04-26T18:59:44.746Z,100225.88
2023-04-26T19:02:11.589Z,100224.72
2023-04-26T19:04:38.494Z,100236.59
2023-04-26T19:07:05.425Z,100237.50
2023-04-26T19:09:39.859Z,100238.13
2023-04-26T19:12:17.405Z,100250.66
2023-04-26T19:14:44.012Z,100240.41
2023-04-26T19:17:11.388Z,100252.28
2023-04-26T19:19:38.513Z,100252.94
2023-04-26T19:22:05.185Z,100248.34
2023-04-26T19:24:31.932Z,100250.28
2023-04-26T19:26:58.676Z,100245.28
2023-04-26T19:29:25.558Z,100253.63
2023-04-26T19:31:52.290Z,100259.63
2023-04-26T19:34:18.986Z,100251.72
2023-04-26T19:36:45.659Z,100251.72
2023-04-26T19:39:12.401Z,100260.63
2023-04-26T19:41:39.238Z,100262.72
2023-04-26T19:44:08.683Z,100260.31
2023-04-26T19:46:35.577Z,100259.03
2023-04-26T19:49:02.210Z,100253.53
2023-04-26T19:51:28.970Z,100259.25
2023-04-26T19:53:55.639Z,100257.75
2023-04-26T19:56:24.016Z,100255.78
2023-04-26T19:58:50.670Z,100258.69
2023-04-26T20:01:17.511Z,100264.50
2023-04-26T20:03:46.123Z,100267.91
2023-04-26T20:06:14.071Z,100262.41
2023-04-26T20:08:41.454Z,100259.44
2023-04-26T20:11:14.754Z,100261.09
2023-04-26T20:13:42.746Z,100270.28
2023-04-26T20:16:09.860Z,100263.94
2023-04-26T20:18:37.457Z,100266.34
2023-04-26T20:21:05.237Z,100269.38
2023-04-26T20:23:32.302Z,100267.31
2023-04-26T20:25:59.573Z,100268.59
2023-04-26T20:28:27.740Z,100275.38
2023-04-26T20:30:54.360Z,100265.97
2023-04-26T20:33:22.592Z,100276.19
2023-04-26T20:35:49.343Z,100271.34
2023-04-26T20:38:16.022Z,100275.94
2023-04-26T20:40:42.666Z,100281.88
2023-04-26T20:43:12.026Z,100275.09
2023-04-26T20:45:40.270Z,100279.69
2023-04-26T20:48:08.118Z,100276.25
2023-04-26T20:50:36.580Z,100278.31
2023-04-26T20:53:04.286Z,100290.41
2023-04-26T20:55:33.881Z,100282.41
2023-04-26T20:58:00.526Z,100290.72
2023-04-26T21:00:28.249Z,100285.16
2023-04-26T21:02:54.986Z,100281.56
2023-04-26T21:05:24.128Z,100281.56
2023-04-26T21:07:50.928Z,100283.09
2023-04-26T21:10:17.900Z,100277.00
2023-04-26T21:12:44.589Z,100276.28
2023-04-26T21:15:11.565Z,100283.34
2023-04-26T21:17:40.285Z,100283.63
2023-04-26T21:20:07.408Z,100285.84
2023-04-26T21:22:34.012Z,100288.59
2023-04-26T21:25:00.834Z,100291.78
2023-04-26T21:27:27.472Z,100290.97
2023-04-26T21:29:54.071Z,100292.91
2023-04-26T21:32:22.621Z,100294.00
2023-04-26T21:34:49.262Z,100300.78
2023-04-26T21:37:16.825Z,100296.75
2023-04-26T21:39:46.178Z,100297.06
2023-04-26T21:42:12.855Z,100296.38
2023-04-26T21:44:39.468Z,100302.03
2023-04-26T21:47:06.471Z,100300.38
2023-04-26T21:49:36.050Z,100302.03
2023-04-26T21:52:04.560Z,100304.53
2023-04-26T21:54:31.354Z,100296.78
2023-04-26T21:56:57.937Z,100310.88
2023-04-26T21:59:24.585Z,100309.78
2023-04-26T22:01:52.629Z,100303.94
2023-04-26T22:04:19.349Z,100311.00
2023-04-26T22:06:46.036Z,100313.50
2023-04-26T22:09:13.505Z,100311.94
2023-04-26T22:11:40.276Z,100321.41
2023-04-26T22:14:06.972Z,100312.78
2023-04-26T22:16:33.651Z,100315.25
2023-04-26T22:19:00.472Z,100317.47
2023-04-26T22:21:28.441Z,100321.91
2023-04-26T22:23:55.328Z,100315.22
2023-04-26T22:26:21.905Z,100320.91
2023-04-26T22:28:48.513Z,100325.19
2023-04-26T22:31:15.200Z,100335.41
2023-04-26T22:33:41.901Z,100329.16
2023-04-26T22:36:08.960Z,100333.28
2023-04-26T22:38:35.709Z,100335.31
2023-04-26T22:41:04.662Z,100341.06
2023-04-26T22:43:31.308Z,100336.91
2023-04-26T22:45:57.974Z,100340.13
2023-04-26T22:48:24.659Z,100336.56
2023-04-26T22:50:51.265Z,100339.28
2023-04-26T22:53:18.437Z,100332.00
2023-04-26T22:55:45.348Z,100326.72
2023-04-26T22:58:12.114Z,100326.72
2023-04-26T23:00:39.339Z,100335.53
2023-04-26T23:03:06.268Z,100338.56
2023-04-26T23:05:35.264Z,100341.72
2023-04-26T23:08:01.919Z,100331.13
2023-04-26T23:10:28.627Z,100337.78
2023-04-26T23:12:55.468Z,100336.63
2023-04-26T23:15:22.280Z,100336.09
2023-04-26T23:17:49.330Z,100336.88
2023-04-26T23:20:19.187Z,100336.38
2023-04-26T23:22:46.040Z,100336.63
2023-04-26T23:25:12.711Z,100342.75
2023-04-26T23:27:39.373Z,100345.81
2023-04-26T23:30:07.205Z,100346.06
2023-04-26T23:32:33.991Z,100350.22
2023-04-26T23:35:00.667Z,100360.25
2023-04-26T23:37:27.568Z,100355.59
2023-04-26T23:39:54.158Z,100364.53
2023-04-26T23:42:21.038Z,100347.59
2023-04-26T23:44:47.677Z,100348.94
2023-04-26T23:47:14.355Z,100350.22
2023-04-26T23:49:41.152Z,100347.22
2023-04-26T23:52:07.822Z,100351.56
2023-04-26T23:54:34.475Z,100350.91
2023-04-26T23:57:01.149Z,100348.06
2023-04-26T23:59:27.888Z,100350.84
